Centennial, WY

2:08 PM MDT on October 25, 2014 (GMT -0600)
Laramie Regional | Change Station
CLOSE
Current Station
Airport
Location: Laramie,
Elevation: 7270 ft
Nearby Weather Stations

Elev 7270 ft 41.32 °N, 105.67 °W | Updated 15 minutes ago

Clear
Clear
71 °F
Feels Like 71 °F
N
18
Wind Variable Wind from WSW
Gusts 26 mph

Today
High -- | Low -- °F
--% Chance of Precip.
Yesterday
High -- | Low -- °F
Precip. -- in
7:27 AM 6:08 PM
Waxing Crescent, 4% visible
Pressure 29.95 in
Visibility 10.0 miles
Clouds Clear
Dew Point 15 °F
Humidity 12%
Rainfall 0.00 in
Snow Depth 1 in , 4 in
UV 4 out of 12
Pollen 3.00 out of 12
Air Quality Not available.
Flu Activity Sporadic
METAR KLAR 251953Z AUTO 24016G23KT 10SM CLR 22/M09 A3021 RMK AO2 SLP141 T02171094

More Conditions Fewer Conditions

Pressure 29.95 in
Visibility 10.0 miles
Clouds Clear
Dew Point 15 °F
Humidity 12%
Rainfall 0.00 in
Snow Depth 1 in , 4 in
UV 4 out of 12
Pollen 3.00 out of 12
Air Quality Not available.
Flu Activity Sporadic
METAR KLAR 251953Z AUTO 24016G23KT 10SM CLR 22/M09 A3021 RMK AO2 SLP141 T02171094

More Conditions Fewer Conditions

10-Day Weather Forecast

Almanac

Astronomy

Oct. 25, 2014 Rise Set
Actual Time 7:27 AM MDT 6:08 PM MDT
Civil Twilight 6:59 AM MDT 6:37 PM MDT
Nautical Twilight 6:27 AM MDT 7:09 PM MDT
Astronomical Twilight 5:55 AM MDT 7:41 PM MDT
Moon 9:10 AM MDT 7:33 PM MDT
Length of Visible Light 11h 37m
Length of Day
10h 41m
Tomorrow will be 2m 32s shorter.
Waxing Crescent, 4% of the Moon is Illuminated
Today
Waxing Crescent
Oct 30
First Quarter
Nov 6
Full
Nov 14
Last Quarter
Nov 22
New

Today's Extremes

State Highs State Lows

Community

WunderPhotos

Upload Photos

1,764,976 photos uploaded!

Nearby

Snow Depth

Station Depth Elevation
Cinnabar Park 1 in 9690 ft
Sand Lake 4 in 10050 ft
Crow Creek 143 in 8330 ft
Old Battle 1 in 9920 ft
Windy Peak 0 in 7900 ft

Earthquake Activity

City Distance Mag. Time & Date
No recent earthquake activity has been reported nearby.
Minimum magnitude displayed is 2.5.

Coastal Water Temperatures

Place Temperature
No Stations Reporting

Nearby Weather Stations